createdAt,value
2022-12-13T00:00:48.117Z,995.28
2022-12-13T00:01:48.159Z,995.27
2022-12-13T00:02:48.075Z,995.28
2022-12-13T00:03:48.192Z,995.27
2022-12-13T00:04:48.067Z,995.22
2022-12-13T00:05:48.045Z,995.18
2022-12-13T00:06:48.060Z,995.20
2022-12-13T00:07:48.067Z,995.16
2022-12-13T00:08:48.004Z,995.19
2022-12-13T00:09:47.998Z,995.20
2022-12-13T00:10:48.056Z,995.20
2022-12-13T00:11:48.027Z,995.19
2022-12-13T00:12:47.975Z,995.17
2022-12-13T00:13:47.972Z,995.18
2022-12-13T00:14:47.965Z,995.13
2022-12-13T00:15:47.952Z,995.15
2022-12-13T00:16:48.083Z,995.08
2022-12-13T00:17:47.933Z,995.11
2022-12-13T00:18:47.902Z,995.09
2022-12-13T00:19:47.895Z,995.15
2022-12-13T00:20:47.911Z,995.05
2022-12-13T00:21:47.874Z,995.08
2022-12-13T00:22:47.851Z,995.04
2022-12-13T00:23:47.870Z,995.06
2022-12-13T00:24:47.862Z,995.05
2022-12-13T00:25:47.842Z,995.01
2022-12-13T00:26:47.812Z,995.06
2022-12-13T00:27:47.801Z,995.05
2022-12-13T00:28:47.849Z,995.07
2022-12-13T00:29:47.783Z,995.05
2022-12-13T00:30:47.819Z,995.04
2022-12-13T00:32:00.934Z,995.05
2022-12-13T00:32:48.823Z,995.06
2022-12-13T00:33:47.749Z,994.97
2022-12-13T00:34:47.759Z,995.00
2022-12-13T00:35:47.728Z,994.94
2022-12-13T00:36:47.699Z,994.96
2022-12-13T00:37:47.699Z,994.94
2022-12-13T00:38:47.764Z,994.98
2022-12-13T00:39:47.678Z,994.90
2022-12-13T00:40:47.678Z,994.91
2022-12-13T00:41:47.648Z,994.90
2022-12-13T00:42:47.637Z,994.86
2022-12-13T00:43:47.636Z,994.90
2022-12-13T00:44:47.616Z,994.93
2022-12-13T00:45:47.652Z,994.93
2022-12-13T00:46:47.621Z,994.89
2022-12-13T00:47:47.644Z,994.85
2022-12-13T00:48:47.567Z,994.85
2022-12-13T00:49:47.567Z,994.84
2022-12-13T00:50:47.557Z,994.79
2022-12-13T00:51:47.592Z,994.81
2022-12-13T00:52:47.531Z,994.87
2022-12-13T00:53:47.519Z,994.83
2022-12-13T00:54:47.508Z,994.85
2022-12-13T00:55:47.497Z,994.76
2022-12-13T00:56:47.516Z,994.87
2022-12-13T00:57:47.526Z,994.88
2022-12-13T00:58:51.675Z,994.87
2022-12-13T00:59:47.466Z,994.82
2022-12-13T01:00:47.467Z,994.79
2022-12-13T01:01:47.479Z,994.78
2022-12-13T01:02:47.415Z,994.75
2022-12-13T01:03:47.496Z,994.83
2022-12-13T01:04:47.401Z,994.81
2022-12-13T01:06:14.508Z,994.80
2022-12-13T01:06:48.447Z,994.80
2022-12-13T01:07:47.453Z,994.82
2022-12-13T01:08:47.358Z,994.80
2022-12-13T01:09:47.373Z,994.78
2022-12-13T01:10:47.343Z,994.75
2022-12-13T01:11:47.325Z,994.77
2022-12-13T01:12:47.320Z,994.81
2022-12-13T01:13:47.320Z,994.81
2022-12-13T01:14:50.691Z,994.78
2022-12-13T01:15:48.302Z,994.76
2022-12-13T01:16:47.366Z,994.80
2022-12-13T01:17:47.263Z,994.82
2022-12-13T01:18:47.282Z,994.83
2022-12-13T01:19:47.253Z,994.82
2022-12-13T01:20:47.243Z,994.85
2022-12-13T01:21:47.234Z,994.82
2022-12-13T01:22:47.298Z,994.78
2022-12-13T01:23:47.211Z,994.82
2022-12-13T01:24:47.186Z,994.88
2022-12-13T01:25:47.185Z,994.84
2022-12-13T01:26:47.201Z,994.90
2022-12-13T01:27:47.164Z,994.91
2022-12-13T01:28:47.143Z,994.89
2022-12-13T01:29:47.132Z,994.91
2022-12-13T01:30:47.144Z,994.86
2022-12-13T01:31:47.122Z,994.85
2022-12-13T01:32:47.129Z,994.82
2022-12-13T01:33:47.093Z,994.91
2022-12-13T01:34:47.103Z,994.89
2022-12-13T01:35:47.076Z,994.85
2022-12-13T01:36:47.110Z,994.88
2022-12-13T01:37:47.052Z,994.87
2022-12-13T01:38:47.051Z,994.86
2022-12-13T01:39:47.038Z,994.94
2022-12-13T01:40:47.016Z,994.89
2022-12-13T01:41:47.029Z,994.86
2022-12-13T01:42:47.062Z,994.88
2022-12-13T01:43:47.040Z,994.85
2022-12-13T01:44:46.971Z,994.83
2022-12-13T01:45:47.012Z,994.80
2022-12-13T01:46:46.957Z,994.80
2022-12-13T01:47:46.980Z,994.83
2022-12-13T01:48:46.927Z,994.78
2022-12-13T01:49:46.941Z,994.81
2022-12-13T01:50:46.917Z,994.84
2022-12-13T01:51:46.928Z,994.78
2022-12-13T01:52:46.897Z,994.83
2022-12-13T01:53:46.883Z,994.83
2022-12-13T01:54:47.065Z,994.80
2022-12-13T01:55:46.975Z,994.82
2022-12-13T01:56:46.852Z,994.78
2022-12-13T01:57:46.836Z,994.81
2022-12-13T01:58:46.844Z,994.77
2022-12-13T01:59:46.818Z,994.77
2022-12-13T02:00:46.815Z,994.80
2022-12-13T02:01:46.885Z,994.85
2022-12-13T02:02:46.774Z,994.79
2022-12-13T02:03:46.780Z,994.82
2022-12-13T02:04:46.805Z,994.80
2022-12-13T02:05:46.774Z,994.81
2022-12-13T02:06:46.785Z,994.85
2022-12-13T02:07:46.726Z,994.79
2022-12-13T02:08:46.725Z,994.83
2022-12-13T02:09:46.720Z,994.84
2022-12-13T02:10:46.685Z,994.79
2022-12-13T02:11:46.778Z,994.81
2022-12-13T02:12:46.663Z,994.81
2022-12-13T02:13:46.692Z,994.88
2022-12-13T02:14:46.657Z,994.82
2022-12-13T02:15:46.688Z,994.83
2022-12-13T02:16:46.624Z,994.85
2022-12-13T02:17:46.654Z,994.83
2022-12-13T02:18:46.600Z,994.88
2022-12-13T02:19:46.604Z,994.81
2022-12-13T02:20:46.602Z,994.84
2022-12-13T02:21:46.575Z,994.80
2022-12-13T02:22:46.572Z,994.81
2022-12-13T02:23:46.591Z,994.80
2022-12-13T02:24:46.549Z,994.83
2022-12-13T02:25:46.535Z,994.85
2022-12-13T02:26:46.621Z,994.81
2022-12-13T02:27:46.548Z,994.82
2022-12-13T02:28:46.504Z,994.78
2022-12-13T02:29:46.518Z,994.74
2022-12-13T02:30:46.545Z,994.75
2022-12-13T02:31:46.467Z,994.75
2022-12-13T02:32:46.451Z,994.76
2022-12-13T02:33:46.439Z,994.74
2022-12-13T02:34:46.436Z,994.73
2022-12-13T02:35:46.442Z,994.74
2022-12-13T02:36:47.478Z,994.74
2022-12-13T02:37:46.413Z,994.79
2022-12-13T02:38:46.389Z,994.78
2022-12-13T02:39:46.379Z,994.79
2022-12-13T02:40:46.388Z,994.74
2022-12-13T02:41:46.360Z,994.73
2022-12-13T02:42:46.411Z,994.72
2022-12-13T02:43:46.341Z,994.69
2022-12-13T02:44:46.330Z,994.69
2022-12-13T02:45:46.327Z,994.70
2022-12-13T02:46:46.318Z,994.67
2022-12-13T02:47:46.336Z,994.67
2022-12-13T02:48:46.280Z,994.62
2022-12-13T02:49:46.277Z,994.64
2022-12-13T02:50:46.299Z,994.58
2022-12-13T02:51:46.268Z,994.58
2022-12-13T02:52:46.239Z,994.63
2022-12-13T02:53:46.247Z,994.63
2022-12-13T02:54:46.218Z,994.64
2022-12-13T02:55:46.207Z,994.68
2022-12-13T02:56:46.188Z,994.58
2022-12-13T02:57:46.214Z,994.60
2022-12-13T02:58:46.178Z,994.59
2022-12-13T02:59:46.177Z,994.64
2022-12-13T03:00:47.148Z,994.60
2022-12-13T03:01:46.173Z,994.58
2022-12-13T03:02:46.223Z,994.58
2022-12-13T03:03:46.253Z,994.65
2022-12-13T03:04:46.127Z,994.56
2022-12-13T03:05:46.117Z,994.60
2022-12-13T03:06:46.093Z,994.56
2022-12-13T03:07:46.089Z,994.57
2022-12-13T03:08:46.068Z,994.53
2022-12-13T03:09:46.164Z,994.61
2022-12-13T03:10:46.055Z,994.60
2022-12-13T03:11:46.033Z,994.60
2022-12-13T03:12:46.026Z,994.58
2022-12-13T03:13:46.014Z,994.54
2022-12-13T03:14:46.009Z,994.57
2022-12-13T03:15:46.035Z,994.59
2022-12-13T03:16:45.975Z,994.56
2022-12-13T03:17:45.983Z,994.51
2022-12-13T03:18:45.967Z,994.49
2022-12-13T03:19:45.956Z,994.60
2022-12-13T03:20:45.993Z,994.59
2022-12-13T03:21:47.985Z,994.52
2022-12-13T03:22:45.926Z,994.56
2022-12-13T03:23:45.926Z,994.53
2022-12-13T03:24:45.893Z,994.55
2022-12-13T03:25:45.933Z,994.46
2022-12-13T03:26:45.894Z,994.52
2022-12-13T03:27:45.878Z,994.52
2022-12-13T03:28:45.857Z,994.52
2022-12-13T03:29:45.839Z,994.52
2022-12-13T03:30:45.847Z,994.50
2022-12-13T03:31:45.901Z,994.50
2022-12-13T03:32:45.889Z,994.53
2022-12-13T03:33:45.804Z,994.52
2022-12-13T03:34:49.664Z,994.56
2022-12-13T03:35:46.928Z,994.55
2022-12-13T03:36:45.760Z,994.57
2022-12-13T03:37:45.786Z,994.54
2022-12-13T03:38:45.769Z,994.55
2022-12-13T03:39:45.738Z,994.52
2022-12-13T03:40:45.721Z,994.55
2022-12-13T03:41:45.719Z,994.56
2022-12-13T03:42:45.721Z,994.59
2022-12-13T03:43:45.695Z,994.51
2022-12-13T03:44:45.700Z,994.55
2022-12-13T03:45:45.671Z,994.44
2022-12-13T03:46:45.706Z,994.40
2022-12-13T03:47:45.647Z,994.44
2022-12-13T03:48:45.630Z,994.44
2022-12-13T03:49:45.685Z,994.44
2022-12-13T03:50:46.636Z,994.47
2022-12-13T03:51:45.611Z,994.41
2022-12-13T03:52:45.600Z,994.40
2022-12-13T03:53:45.586Z,994.38
2022-12-13T03:54:45.583Z,994.40
2022-12-13T03:55:45.571Z,994.42
2022-12-13T03:56:45.567Z,994.37
2022-12-13T03:57:45.548Z,994.37
2022-12-13T03:58:45.529Z,994.34
2022-12-13T03:59:45.522Z,994.33
2022-12-13T04:00:45.526Z,994.36
2022-12-13T04:01:45.550Z,994.35
2022-12-13T04:02:45.564Z,994.36
2022-12-13T04:03:45.485Z,994.35
2022-12-13T04:04:45.463Z,994.32
2022-12-13T04:05:45.517Z,994.35
2022-12-13T04:06:45.445Z,994.34
2022-12-13T04:07:48.203Z,994.34
2022-12-13T04:08:45.509Z,994.31
2022-12-13T04:09:45.463Z,994.33
2022-12-13T04:10:45.414Z,994.29
2022-12-13T04:11:45.397Z,994.24
2022-12-13T04:12:48.315Z,994.31
2022-12-13T04:13:45.373Z,994.31
2022-12-13T04:14:45.390Z,994.26
2022-12-13T04:15:45.465Z,994.25
2022-12-13T04:16:45.344Z,994.29
2022-12-13T04:17:45.322Z,994.31
2022-12-13T04:18:46.346Z,994.33
2022-12-13T04:19:45.303Z,994.28
2022-12-13T04:20:45.315Z,994.28
2022-12-13T04:21:45.286Z,994.28
2022-12-13T04:22:45.268Z,994.25
2022-12-13T04:23:45.253Z,994.31
2022-12-13T04:24:45.256Z,994.27
2022-12-13T04:25:45.292Z,994.33
2022-12-13T04:26:45.251Z,994.34
2022-12-13T04:27:45.218Z,994.35
2022-12-13T04:28:49.372Z,994.37
2022-12-13T04:29:46.207Z,994.33
2022-12-13T04:30:45.213Z,994.37
2022-12-13T04:31:45.325Z,994.39
2022-12-13T04:32:45.199Z,994.38
2022-12-13T04:33:45.150Z,994.35
2022-12-13T04:34:45.142Z,994.28
2022-12-13T04:35:45.129Z,994.33
2022-12-13T04:36:45.159Z,994.38
2022-12-13T04:37:45.120Z,994.36
2022-12-13T04:38:45.146Z,994.35
2022-12-13T04:39:48.063Z,994.38
2022-12-13T04:40:45.088Z,994.44
2022-12-13T04:41:45.069Z,994.43
2022-12-13T04:42:45.087Z,994.47
2022-12-13T04:43:45.075Z,994.41
2022-12-13T04:44:46.305Z,994.38
2022-12-13T04:45:45.108Z,994.41
2022-12-13T04:46:45.036Z,994.38
2022-12-13T04:47:45.019Z,994.50
2022-12-13T04:48:45.001Z,994.42
2022-12-13T04:49:44.978Z,994.40
2022-12-13T04:50:45.069Z,994.47
2022-12-13T04:51:47.497Z,994.42
2022-12-13T04:52:44.977Z,994.35
2022-12-13T04:53:44.967Z,994.43
2022-12-13T04:54:44.937Z,994.44
2022-12-13T04:55:44.916Z,994.42
2022-12-13T04:56:44.915Z,994.44
2022-12-13T04:57:44.896Z,994.41
2022-12-13T04:58:44.898Z,994.42
2022-12-13T04:59:44.896Z,994.43
2022-12-13T05:00:44.903Z,994.52
2022-12-13T05:01:44.848Z,994.45
2022-12-13T05:02:44.883Z,994.48
2022-12-13T05:03:44.831Z,994.42
2022-12-13T05:04:44.844Z,994.48
2022-12-13T05:05:44.862Z,994.46
2022-12-13T05:06:44.868Z,994.41
2022-12-13T05:07:44.791Z,994.44
2022-12-13T05:08:44.853Z,994.42
2022-12-13T05:09:44.813Z,994.45
2022-12-13T05:10:44.804Z,994.46
2022-12-13T05:11:45.546Z,994.43
2022-12-13T05:12:44.751Z,994.43
2022-12-13T05:13:44.722Z,994.45
2022-12-13T05:14:44.735Z,994.48
2022-12-13T05:15:44.749Z,994.44
2022-12-13T05:16:44.755Z,994.35
2022-12-13T05:17:44.679Z,994.38
2022-12-13T05:18:44.663Z,994.38
2022-12-13T05:19:44.660Z,994.34
2022-12-13T05:20:44.671Z,994.32
2022-12-13T05:21:44.654Z,994.35
2022-12-13T05:22:44.661Z,994.34
2022-12-13T05:23:44.749Z,994.36
2022-12-13T05:24:44.608Z,994.28
2022-12-13T05:25:44.798Z,994.41
2022-12-13T05:26:44.579Z,994.41
2022-12-13T05:27:44.591Z,994.38
2022-12-13T05:28:44.573Z,994.38
2022-12-13T05:29:44.551Z,994.41
2022-12-13T05:30:44.545Z,994.39
2022-12-13T05:31:44.584Z,994.38
2022-12-13T05:32:44.970Z,994.38
2022-12-13T05:33:44.550Z,994.42
2022-12-13T05:34:44.502Z,994.39
2022-12-13T05:35:44.493Z,994.33
2022-12-13T05:36:44.500Z,994.33
2022-12-13T05:37:44.469Z,994.38
2022-12-13T05:38:44.468Z,994.36
2022-12-13T05:39:44.484Z,994.42
2022-12-13T05:40:44.460Z,994.35
2022-12-13T05:41:44.420Z,994.37
2022-12-13T05:42:44.441Z,994.41
2022-12-13T05:43:44.414Z,994.35
2022-12-13T05:44:44.430Z,994.33
2022-12-13T05:45:44.421Z,994.36
2022-12-13T05:46:44.388Z,994.33
2022-12-13T05:47:44.397Z,994.40
2022-12-13T05:48:44.368Z,994.36
2022-12-13T05:49:44.346Z,994.32
2022-12-13T05:50:44.389Z,994.38
2022-12-13T05:51:44.318Z,994.35
2022-12-13T05:52:44.318Z,994.32
2022-12-13T05:53:47.318Z,994.32
2022-12-13T05:54:45.309Z,994.28
2022-12-13T05:55:44.286Z,994.27
2022-12-13T05:56:44.301Z,994.29
2022-12-13T05:57:50.731Z,994.24
2022-12-13T05:58:45.246Z,994.26
2022-12-13T05:59:44.237Z,994.27
2022-12-13T06:00:44.223Z,994.22
2022-12-13T06:01:44.276Z,994.25
2022-12-13T06:02:44.324Z,994.25
2022-12-13T06:03:44.299Z,994.19
2022-12-13T06:04:44.192Z,994.16
2022-12-13T06:05:44.191Z,994.20
2022-12-13T06:06:44.171Z,994.24
2022-12-13T06:07:44.145Z,994.30
2022-12-13T06:08:44.221Z,994.23
2022-12-13T06:09:44.169Z,994.29
2022-12-13T06:10:44.118Z,994.31
2022-12-13T06:11:44.108Z,994.32
2022-12-13T06:12:44.122Z,994.32
2022-12-13T06:13:44.356Z,994.39
2022-12-13T06:14:44.096Z,994.36
2022-12-13T06:15:44.596Z,994.38
2022-12-13T06:16:44.079Z,994.34
2022-12-13T06:17:44.081Z,994.37
2022-12-13T06:18:44.021Z,994.38
2022-12-13T06:19:44.041Z,994.41
2022-12-13T06:20:44.008Z,994.36
2022-12-13T06:21:46.353Z,994.33
2022-12-13T06:22:43.995Z,994.34
2022-12-13T06:23:51.012Z,994.38
2022-12-13T06:24:43.961Z,994.38
2022-12-13T06:25:51.516Z,994.40
2022-12-13T06:26:45.559Z,994.42
2022-12-13T06:27:43.931Z,994.38
2022-12-13T06:28:43.921Z,994.39
2022-12-13T06:29:43.909Z,994.33
2022-12-13T06:30:43.966Z,994.36
2022-12-13T06:31:43.919Z,994.33
2022-12-13T06:32:44.097Z,994.38
2022-12-13T06:33:43.859Z,994.37
2022-12-13T06:34:43.848Z,994.37
2022-12-13T06:35:44.624Z,994.37
2022-12-13T06:36:43.856Z,994.37
2022-12-13T06:37:43.849Z,994.32
2022-12-13T06:38:43.896Z,994.36
2022-12-13T06:39:43.997Z,994.31
2022-12-13T06:40:43.789Z,994.31
2022-12-13T06:41:43.779Z,994.32
2022-12-13T06:42:43.806Z,994.26
2022-12-13T06:43:43.842Z,994.31
2022-12-13T06:44:43.767Z,994.31
2022-12-13T06:45:43.749Z,994.34
2022-12-13T06:46:43.728Z,994.35
2022-12-13T06:47:43.737Z,994.34
2022-12-13T06:48:43.716Z,994.31
2022-12-13T06:49:44.580Z,994.31
2022-12-13T06:50:43.740Z,994.32
2022-12-13T06:51:43.676Z,994.34
2022-12-13T06:52:43.680Z,994.33
2022-12-13T06:53:43.654Z,994.42
2022-12-13T06:54:43.669Z,994.41
2022-12-13T06:55:43.636Z,994.41
2022-12-13T06:56:43.629Z,994.49
2022-12-13T06:57:43.614Z,994.44
2022-12-13T06:58:43.594Z,994.41
2022-12-13T06:59:43.966Z,994.40
2022-12-13T07:00:48.922Z,994.48
2022-12-13T07:01:44.621Z,994.51
2022-12-13T07:02:44.716Z,994.49
2022-12-13T07:03:43.588Z,994.53
2022-12-13T07:04:43.544Z,994.54
2022-12-13T07:05:43.643Z,994.54
2022-12-13T07:06:43.536Z,994.47
2022-12-13T07:07:43.503Z,994.52
2022-12-13T07:08:43.563Z,994.47
2022-12-13T07:09:43.730Z,994.46
2022-12-13T07:10:43.473Z,994.47
2022-12-13T07:11:48.415Z,994.44
2022-12-13T07:12:44.473Z,994.45
2022-12-13T07:13:43.472Z,994.44
2022-12-13T07:14:43.432Z,994.46
2022-12-13T07:15:43.593Z,994.46
2022-12-13T07:16:43.442Z,994.46
2022-12-13T07:17:43.392Z,994.46
2022-12-13T07:18:43.389Z,994.46
2022-12-13T07:19:43.684Z,994.47
2022-12-13T07:20:43.372Z,994.49
2022-12-13T07:21:43.359Z,994.45
2022-12-13T07:22:47.823Z,994.41
2022-12-13T07:23:44.331Z,994.52
2022-12-13T07:24:43.350Z,994.50
2022-12-13T07:25:43.323Z,994.49
2022-12-13T07:26:43.309Z,994.46
2022-12-13T07:27:43.345Z,994.45
2022-12-13T07:28:43.326Z,994.49
2022-12-13T07:29:43.627Z,994.51
2022-12-13T07:30:43.262Z,994.56
2022-12-13T07:31:43.342Z,994.50
2022-12-13T07:32:43.272Z,994.58
2022-12-13T07:33:43.248Z,994.46
2022-12-13T07:34:43.230Z,994.59
2022-12-13T07:35:43.288Z,994.50
2022-12-13T07:36:43.197Z,994.53
2022-12-13T07:37:43.230Z,994.50
2022-12-13T07:38:43.184Z,994.55
2022-12-13T07:39:43.227Z,994.56
2022-12-13T07:40:43.214Z,994.53
2022-12-13T07:41:43.147Z,994.54
2022-12-13T07:42:43.143Z,994.59
2022-12-13T07:43:43.118Z,994.58
2022-12-13T07:44:43.108Z,994.55
2022-12-13T07:45:43.155Z,994.58
2022-12-13T07:46:43.125Z,994.54
2022-12-13T07:47:43.076Z,994.53
2022-12-13T07:48:43.066Z,994.54
2022-12-13T07:49:43.056Z,994.53
2022-12-13T07:50:43.065Z,994.55
2022-12-13T07:51:43.038Z,994.51
2022-12-13T07:52:43.030Z,994.60
2022-12-13T07:53:43.050Z,994.57
2022-12-13T07:54:43.007Z,994.55
2022-12-13T07:55:43.068Z,994.60
2022-12-13T07:56:43.028Z,994.54
2022-12-13T07:57:42.997Z,994.52
2022-12-13T07:58:42.973Z,994.55
2022-12-13T07:59:42.989Z,994.54
2022-12-13T08:00:46.005Z,994.58
2022-12-13T08:01:43.069Z,994.54
2022-12-13T08:02:43.078Z,994.55
2022-12-13T08:03:42.925Z,994.57
2022-12-13T08:04:42.973Z,994.55
2022-12-13T08:05:42.995Z,994.48
2022-12-13T08:06:42.954Z,994.51
2022-12-13T08:07:42.874Z,994.61
2022-12-13T08:08:43.006Z,994.51
2022-12-13T08:09:46.807Z,994.52
2022-12-13T08:10:43.882Z,994.54
2022-12-13T08:11:42.823Z,994.49
2022-12-13T08:12:42.854Z,994.51
2022-12-13T08:13:42.844Z,994.51
2022-12-13T08:14:42.813Z,994.49
2022-12-13T08:15:42.873Z,994.45
2022-12-13T08:16:42.877Z,994.47
2022-12-13T08:17:42.759Z,994.48
2022-12-13T08:18:42.771Z,994.51
2022-12-13T08:19:42.819Z,994.42
2022-12-13T08:20:42.829Z,994.45
2022-12-13T08:21:54.704Z,994.41
2022-12-13T08:22:43.709Z,994.43
2022-12-13T08:23:43.692Z,994.44
2022-12-13T08:24:42.701Z,994.43
2022-12-13T08:25:42.761Z,994.45
2022-12-13T08:26:42.670Z,994.37
2022-12-13T08:27:42.979Z,994.39
2022-12-13T08:28:42.663Z,994.36
2022-12-13T08:29:42.721Z,994.34
2022-12-13T08:30:42.630Z,994.33
2022-12-13T08:31:42.662Z,994.30
2022-12-13T08:32:42.608Z,994.33
2022-12-13T08:33:42.688Z,994.34
2022-12-13T08:34:42.612Z,994.33
2022-12-13T08:35:42.667Z,994.36
2022-12-13T08:36:42.639Z,994.40
2022-12-13T08:37:42.546Z,994.33
2022-12-13T08:38:42.529Z,994.31
2022-12-13T08:39:42.526Z,994.32
2022-12-13T08:40:42.530Z,994.28
2022-12-13T08:41:42.507Z,994.31
2022-12-13T08:42:42.523Z,994.30
2022-12-13T08:43:42.476Z,994.26
2022-12-13T08:44:42.467Z,994.26
2022-12-13T08:45:42.573Z,994.28
2022-12-13T08:46:42.569Z,994.27
2022-12-13T08:47:42.437Z,994.27
2022-12-13T08:48:44.846Z,994.28
2022-12-13T08:49:42.415Z,994.25
2022-12-13T08:50:42.406Z,994.25
2022-12-13T08:51:42.395Z,994.28
2022-12-13T08:52:42.388Z,994.28
2022-12-13T08:53:42.502Z,994.31
2022-12-13T08:54:42.355Z,994.29
2022-12-13T08:55:42.364Z,994.23
2022-12-13T08:56:43.583Z,994.22
2022-12-13T08:57:42.361Z,994.21
2022-12-13T08:58:42.316Z,994.27
2022-12-13T08:59:42.346Z,994.28
2022-12-13T09:00:42.383Z,994.27
2022-12-13T09:01:42.327Z,994.19
2022-12-13T09:02:42.346Z,994.22
2022-12-13T09:03:42.300Z,994.24
2022-12-13T09:04:42.253Z,994.26
2022-12-13T09:05:42.275Z,994.30
2022-12-13T09:06:42.299Z,994.33
2022-12-13T09:07:42.221Z,994.32
2022-12-13T09:08:42.277Z,994.35
2022-12-13T09:09:42.193Z,994.32
2022-12-13T09:10:42.220Z,994.31
2022-12-13T09:11:42.174Z,994.28
2022-12-13T09:12:42.173Z,994.30
2022-12-13T09:13:43.545Z,994.29
2022-12-13T09:14:45.433Z,994.38
2022-12-13T09:15:45.807Z,994.34
2022-12-13T09:16:42.137Z,994.37
2022-12-13T09:17:43.144Z,994.41
2022-12-13T09:18:43.091Z,994.32
2022-12-13T09:19:42.218Z,994.37
2022-12-13T09:20:42.220Z,994.36
2022-12-13T09:21:43.175Z,994.41
2022-12-13T09:22:45.247Z,994.42
2022-12-13T09:23:46.056Z,994.31
2022-12-13T09:24:42.074Z,994.32
2022-12-13T09:25:47.231Z,994.40
2022-12-13T09:26:43.040Z,994.41
2022-12-13T09:27:42.052Z,994.39
2022-12-13T09:28:42.041Z,994.36
2022-12-13T09:29:41.990Z,994.37
2022-12-13T09:30:41.993Z,994.38
2022-12-13T09:31:42.032Z,994.41
2022-12-13T09:32:41.970Z,994.34
2022-12-13T09:33:42.243Z,994.42
2022-12-13T09:34:41.976Z,994.33
2022-12-13T09:35:41.943Z,994.37
2022-12-13T09:36:41.906Z,994.43
2022-12-13T09:37:45.849Z,994.43
2022-12-13T09:38:41.927Z,994.40
2022-12-13T09:39:41.878Z,994.37
2022-12-13T09:40:41.870Z,994.38
2022-12-13T09:41:41.866Z,994.40
2022-12-13T09:42:42.496Z,994.44
2022-12-13T09:43:43.007Z,994.42
2022-12-13T09:44:43.851Z,994.38
2022-12-13T09:45:43.132Z,994.38
2022-12-13T09:46:44.505Z,994.43
2022-12-13T09:47:47.206Z,994.36
2022-12-13T09:48:48.525Z,994.38
2022-12-13T09:49:42.810Z,994.35
2022-12-13T09:50:53.058Z,994.43
2022-12-13T09:51:47.261Z,994.39
2022-12-13T09:52:42.801Z,994.43
2022-12-13T09:53:42.000Z,994.40
2022-12-13T09:54:48.389Z,994.40
2022-12-13T09:55:42.758Z,994.38
2022-12-13T09:56:41.688Z,994.42
2022-12-13T09:57:41.718Z,994.38
2022-12-13T09:58:41.697Z,994.44
2022-12-13T09:59:41.662Z,994.40
2022-12-13T10:00:41.743Z,994.39
2022-12-13T10:01:41.804Z,994.36
2022-12-13T10:02:41.626Z,994.41
2022-12-13T10:03:41.652Z,994.39
2022-12-13T10:04:41.604Z,994.39
2022-12-13T10:05:41.626Z,994.42
2022-12-13T10:06:41.583Z,994.40
2022-12-13T10:07:41.622Z,994.44
2022-12-13T10:08:41.565Z,994.38
2022-12-13T10:09:41.557Z,994.37
2022-12-13T10:10:41.542Z,994.39
2022-12-13T10:11:45.820Z,994.34
2022-12-13T10:12:42.552Z,994.36
2022-12-13T10:13:41.513Z,994.43
2022-12-13T10:14:41.563Z,994.40
2022-12-13T10:15:41.516Z,994.41
2022-12-13T10:16:41.598Z,994.39
2022-12-13T10:17:41.483Z,994.42
2022-12-13T10:18:41.472Z,994.38
2022-12-13T10:19:41.450Z,994.40
2022-12-13T10:20:41.430Z,994.35
2022-12-13T10:21:41.441Z,994.35
2022-12-13T10:22:41.446Z,994.34
2022-12-13T10:24:15.316Z,994.37
2022-12-13T10:24:42.872Z,994.33
2022-12-13T10:25:41.446Z,994.36
2022-12-13T10:26:41.443Z,994.36
2022-12-13T10:27:41.372Z,994.24
2022-12-13T10:28:41.353Z,994.25
2022-12-13T10:29:41.357Z,994.23
2022-12-13T10:30:41.341Z,994.18
2022-12-13T10:31:41.428Z,994.17
2022-12-13T10:32:41.301Z,994.19
2022-12-13T10:33:41.295Z,994.16
2022-12-13T10:34:41.280Z,994.18
2022-12-13T10:35:41.331Z,994.15
2022-12-13T10:36:41.262Z,994.16
2022-12-13T10:37:41.250Z,994.15
2022-12-13T10:38:41.240Z,994.16
2022-12-13T10:39:41.274Z,994.10
2022-12-13T10:40:41.219Z,994.12
2022-12-13T10:41:41.231Z,994.07
2022-12-13T10:42:41.210Z,994.07
2022-12-13T10:43:41.189Z,994.08
2022-12-13T10:44:41.184Z,994.07
2022-12-13T10:45:41.255Z,994.10
2022-12-13T10:46:41.193Z,994.09
2022-12-13T10:47:41.189Z,994.03
2022-12-13T10:48:41.145Z,994.08
2022-12-13T10:49:41.118Z,994.06
2022-12-13T10:50:41.175Z,993.99
2022-12-13T10:51:41.098Z,993.98
2022-12-13T10:52:43.098Z,994.00
2022-12-13T10:53:47.428Z,993.94
2022-12-13T10:54:48.092Z,993.94
2022-12-13T10:55:42.112Z,994.00
2022-12-13T10:56:41.045Z,993.96
2022-12-13T10:57:41.048Z,993.97
2022-12-13T10:58:41.037Z,993.91
2022-12-13T10:59:41.038Z,993.95
2022-12-13T11:00:41.007Z,993.98
2022-12-13T11:01:41.040Z,993.97
2022-12-13T11:02:41.036Z,993.91
2022-12-13T11:03:40.975Z,993.95
2022-12-13T11:04:40.955Z,993.95
2022-12-13T11:05:40.987Z,993.91
2022-12-13T11:06:43.465Z,993.91
2022-12-13T11:07:40.928Z,993.85
2022-12-13T11:08:40.914Z,993.91
2022-12-13T11:09:40.904Z,993.90
2022-12-13T11:10:40.913Z,993.91
2022-12-13T11:11:40.885Z,993.81
2022-12-13T11:12:40.876Z,993.81
2022-12-13T11:13:40.876Z,993.80
2022-12-13T11:14:43.603Z,993.83
2022-12-13T11:15:40.874Z,993.82
2022-12-13T11:16:40.852Z,993.82
2022-12-13T11:17:40.833Z,993.80
2022-12-13T11:18:40.802Z,993.76
2022-12-13T11:19:40.835Z,993.74
2022-12-13T11:20:40.783Z,993.71
2022-12-13T11:21:40.794Z,993.83
2022-12-13T11:22:40.781Z,993.75
2022-12-13T11:23:40.762Z,993.71
2022-12-13T11:24:40.763Z,993.67
2022-12-13T11:25:40.754Z,993.68
2022-12-13T11:26:40.722Z,993.69
2022-12-13T11:27:40.722Z,993.67
2022-12-13T11:28:40.999Z,993.71
2022-12-13T11:29:42.920Z,993.70
2022-12-13T11:30:40.674Z,993.64
2022-12-13T11:31:40.741Z,993.62
2022-12-13T11:32:40.670Z,993.57
2022-12-13T11:33:47.729Z,993.52
2022-12-13T11:34:41.626Z,993.46
2022-12-13T11:35:40.649Z,993.47
2022-12-13T11:36:40.609Z,993.40
2022-12-13T11:37:40.601Z,993.48
2022-12-13T11:38:40.611Z,993.45
2022-12-13T11:39:40.572Z,993.35
2022-12-13T11:40:40.569Z,993.42
2022-12-13T11:41:40.549Z,993.42
2022-12-13T11:42:40.540Z,993.39
2022-12-13T11:43:40.530Z,993.35
2022-12-13T11:44:44.482Z,993.32
2022-12-13T11:45:41.653Z,993.29
2022-12-13T11:46:40.496Z,993.21
2022-12-13T11:47:40.522Z,993.22
2022-12-13T11:48:40.481Z,993.24
2022-12-13T11:49:40.492Z,993.28
2022-12-13T11:50:40.478Z,993.29
2022-12-13T11:51:40.453Z,993.30
2022-12-13T11:52:40.447Z,993.35
2022-12-13T11:53:40.440Z,993.36
2022-12-13T11:54:40.419Z,993.38
2022-12-13T11:55:40.489Z,993.34
2022-12-13T11:56:40.391Z,993.34
2022-12-13T11:57:40.377Z,993.30
2022-12-13T11:59:03.117Z,993.28
2022-12-13T11:59:41.379Z,993.29
2022-12-13T12:00:40.358Z,993.27
2022-12-13T12:01:40.365Z,993.30
2022-12-13T12:02:40.402Z,993.28
2022-12-13T12:03:40.379Z,993.24
2022-12-13T12:04:40.313Z,993.23
2022-12-13T12:05:40.354Z,993.21
2022-12-13T12:06:40.300Z,993.19
2022-12-13T12:07:53.158Z,993.18
2022-12-13T12:08:41.257Z,993.18
2022-12-13T12:09:40.255Z,993.15
2022-12-13T12:10:45.703Z,993.12
2022-12-13T12:11:41.259Z,993.15
2022-12-13T12:12:40.239Z,993.14
2022-12-13T12:13:51.089Z,993.20
2022-12-13T12:14:41.193Z,993.21
2022-12-13T12:15:41.609Z,993.11
2022-12-13T12:16:40.222Z,993.15
2022-12-13T12:17:42.501Z,993.12
2022-12-13T12:18:40.148Z,993.10
2022-12-13T12:19:40.160Z,993.15
2022-12-13T12:20:40.173Z,993.14
2022-12-13T12:22:12.629Z,993.04
2022-12-13T12:22:41.119Z,993.01
2022-12-13T12:23:45.220Z,993.01
2022-12-13T12:24:41.083Z,993.04
2022-12-13T12:25:42.166Z,993.04
2022-12-13T12:26:40.054Z,993.05
2022-12-13T12:27:40.061Z,993.10
2022-12-13T12:28:44.193Z,993.04